KDUC/DUC METAR and TAF weather

Enter ICAO airport designator
Station Type Date Time Source
KDUC METAR 2021/05/11 01:35 UTC NOAA

KDUC 110135Z AUTO 11007KT 10SM OVC049 17/11 A3006 RMK AO2 LTG DSNT E T01650114


Station Type Date Time Source
KDUC Decoded METAR 2021/05/11 01:35 UTC NOAA

Duncan, Halliburton Field Airport, OK, United States (KDUC) 34-28-15N 097-57-36W
May 10, 2021 - 09:35 PM EDT / 2021.05.11 0135 UTC
Wind: from the ESE (110 degrees) at 8 MPH (7 KT):0
Visibility: 10 mile(s):0
Sky conditions: overcast
Weather: Lightning observed
Temperature: 61.7 F (16.5 C)
Dew Point: 52.5 F (11.4 C)
Relative Humidity: 71%
Pressure (altimeter): 30.06 in. Hg (1017 hPa)
ob: KDUC 110135Z AUTO 11007KT 10SM OVC049 17/11 A3006 RMK AO2 LTG DSNT E T01650114
cycle: 1

Station Type Date Time Source
KDUC TAF UTC NOAA

Error!

Example: see airport list